Time;durP1;ratioP1;P1;durP2;ratioP2;P2;SDS_P1;SDS_P2;PMS_P1;PMS_P2;Temp;Humidity;BMP_temperature;BMP_pressure;BME280_temperature;BME280_humidity;BME280_pressure;Samples;Min_cycle;Max_cycle;Signal;HPM_P1;HPM_P2
2022/02/28 00:03:03;;;;;;;63.48;34.48;;;;;;;1.90;85.59;102165.98;2724198;87;21589;-71
2022/02/28 00:07:05;;;;;;;56.42;36.98;;;;;;;1.89;85.70;102162.94;2724548;87;21093;-69
2022/02/28 00:11:06;;;;;;;50.73;32.67;;;;;;;1.93;85.28;102153.69;2724122;87;21104;-71
2022/02/28 00:15:11;;;;;;;54.55;33.73;;;;;;;1.98;84.80;102158.87;2723793;86;21069;-71
2022/02/28 00:19:13;;;;;;;48.30;31.77;;;;;;;1.98;84.63;102153.62;2724224;86;21065;-69
2022/02/28 00:23:14;;;;;;;57.35;33.40;;;;;;;1.91;84.29;102153.28;2724329;87;21093;-70
2022/02/28 00:27:16;;;;;;;53.02;34.83;;;;;;;1.92;84.61;102155.02;2723964;87;21879;-70
2022/02/28 00:31:22;;;;;;;48.52;32.63;;;;;;;1.97;84.88;102149.27;2724124;86;21041;-70
2022/02/28 00:35:24;;;;;;;54.98;31.52;;;;;;;1.98;84.88;102147.91;2724600;86;21089;-70
2022/02/28 00:39:25;;;;;;;58.17;32.13;;;;;;;1.92;84.92;102148.45;2724549;87;21121;-70
2022/02/28 00:43:27;;;;;;;66.80;38.88;;;;;;;1.94;85.14;102146.66;2724848;86;21076;-70
2022/02/28 00:47:28;;;;;;;59.23;34.43;;;;;;;1.90;85.37;102145.88;2724328;86;21076;-70
2022/02/28 00:51:30;;;;;;;49.70;29.90;;;;;;;1.88;84.88;102150.71;2723965;86;21029;-69
2022/02/28 00:55:32;;;;;;;48.20;30.12;;;;;;;1.82;84.83;102148.61;2724552;87;21120;-70
2022/02/28 00:59:34;;;;;;;49.20;29.92;;;;;;;1.79;85.28;102149.09;2727593;86;22048;-70
2022/02/28 01:03:36;;;;;;;48.87;31.48;;;;;;;1.75;84.82;102143.02;2748308;85;21077;-71
2022/02/28 01:07:37;;;;;;;56.42;33.18;;;;;;;1.66;85.45;102141.39;2747675;86;21079;-70
2022/02/28 01:11:39;;;;;;;49.65;33.00;;;;;;;1.64;85.78;102135.30;2748443;86;21451;-70
2022/02/28 01:15:41;;;;;;;55.48;34.35;;;;;;;1.59;85.17;102137.59;2747651;86;21095;-70
2022/02/28 01:19:43;;;;;;;50.03;29.30;;;;;;;1.54;85.80;102131.95;2747820;86;21063;-70
2022/02/28 01:23:45;;;;;;;63.63;34.53;;;;;;;1.57;85.52;102128.42;2748254;86;21092;-69
2022/02/28 01:27:47;;;;;;;58.33;33.75;;;;;;;1.58;85.56;102123.59;2747563;85;21124;-70
2022/02/28 01:31:49;;;;;;;50.45;34.35;;;;;;;1.59;85.60;102118.77;2747601;85;21056;-70
2022/02/28 01:35:50;;;;;;;51.58;31.42;;;;;;;1.59;85.68;102119.23;2747843;85;21088;-70
2022/02/28 01:39:52;;;;;;;57.48;35.55;;;;;;;1.48;85.62;102125.48;2746659;85;21091;-69
2022/02/28 01:43:54;;;;;;;63.73;39.00;;;;;;;1.49;85.45;102123.75;2748064;86;21360;-70
2022/02/28 01:47:57;;;;;;;55.20;34.73;;;;;;;1.49;84.93;102123.28;2748081;86;21052;-70
2022/02/28 01:52:00;;;;;;;62.38;34.65;;;;;;;1.43;85.30;102124.69;2748312;86;21048;-70
2022/02/28 01:56:01;;;;;;;62.62;38.00;;;;;;;1.29;85.83;102123.58;2747941;86;21029;-70
2022/02/28 02:00:08;;;;;;;66.57;37.05;;;;;;;1.21;86.44;102122.36;2742046;86;21038;-70
2022/02/28 02:04:09;;;;;;;60.40;36.98;;;;;;;1.17;86.39;102123.73;2724075;86;21045;-70
2022/02/28 02:08:11;;;;;;;57.17;33.10;;;;;;;1.14;86.36;102110.20;2723993;87;21155;-70
2022/02/28 02:12:13;;;;;;;55.15;33.50;;;;;;;1.06;86.22;102114.69;2724490;87;21581;-70
2022/02/28 02:16:16;;;;;;;61.90;38.78;;;;;;;0.90;87.00;102118.80;2724860;87;21362;-70
2022/02/28 02:20:26;;;;;;;53.35;33.23;;;;;;;0.87;87.30;102119.27;2724900;87;21112;-70
2022/02/28 02:24:27;;;;;;;61.85;36.05;;;;;;;0.83;87.26;102119.31;2724641;87;21041;-70
2022/02/28 02:28:29;;;;;;;61.85;32.40;;;;;;;0.81;87.33;102117.61;2724734;86;21097;-70
2022/02/28 02:32:30;;;;;;;67.90;40.20;;;;;;;0.80;87.40;102115.88;2725165;87;21069;-70
2022/02/28 02:36:32;;;;;;;64.07;35.50;;;;;;;0.87;87.58;102107.05;2724155;87;21085;-70
2022/02/28 02:40:34;;;;;;;67.90;37.75;;;;;;;0.91;87.30;102113.98;2724625;86;21068;-70
2022/02/28 02:44:36;;;;;;;58.38;34.78;;;;;;;0.94;86.51;102111.78;2724438;86;21025;-69
2022/02/28 02:48:38;;;;;;;59.63;35.38;;;;;;;0.86;86.18;102102.70;2724603;87;21694;-69
2022/02/28 02:52:40;;;;;;;61.65;36.28;;;;;;;0.81;86.67;102104.52;2724225;87;21061;-70
2022/02/28 02:56:42;;;;;;;57.70;34.75;;;;;;;0.85;86.75;102106.20;2724522;87;21057;-70
2022/02/28 03:00:48;;;;;;;72.08;40.67;;;;;;;0.91;87.05;102100.03;2723728;86;21089;-70
2022/02/28 03:04:50;;;;;;;59.83;34.90;;;;;;;0.99;87.08;102100.36;2724199;87;21138;-70
2022/02/28 03:08:52;;;;;;;64.60;35.25;;;;;;;0.99;87.03;102091.19;2724231;86;21124;-70
2022/02/28 03:12:54;;;;;;;70.65;37.15;;;;;;;1.04;87.31;102092.88;2724526;87;21022;-70
2022/02/28 03:16:55;;;;;;;66.42;40.88;;;;;;;0.82;87.59;102083.98;2723486;87;21104;-69
2022/02/28 03:20:57;;;;;;;58.95;36.45;;;;;;;0.69;88.32;102079.33;2724388;86;21314;-69
2022/02/28 03:24:59;;;;;;;64.17;35.48;;;;;;;0.74;87.67;102082.76;2724367;87;21080;-69
2022/02/28 03:29:00;;;;;;;60.65;36.53;;;;;;;0.85;86.90;102085.25;2724319;87;21064;-69
2022/02/28 03:33:02;;;;;;;70.25;37.03;;;;;;;0.93;86.37;102087.31;2724311;87;21581;-69
2022/02/28 03:37:04;;;;;;;60.28;35.52;;;;;;;0.96;86.24;102078.09;2724485;87;21053;-69
2022/02/28 03:41:06;;;;;;;60.17;36.08;;;;;;;1.02;86.08;102078.47;2723781;87;21049;-69
2022/02/28 03:45:08;;;;;;;66.95;34.88;;;;;;;0.83;86.16;102087.02;2724430;86;21029;-69
2022/02/28 03:49:10;;;;;;;69.07;37.42;;;;;;;0.79;86.20;102084.02;2724339;87;21069;-69
2022/02/28 03:53:11;;;;;;;64.72;39.53;;;;;;;0.74;86.58;102085.38;2723209;87;21049;-69
2022/02/28 03:57:14;;;;;;;61.08;36.40;;;;;;;0.56;87.24;102085.13;2724953;87;21065;-69
2022/02/28 04:01:15;;;;;;;60.70;35.65;;;;;;;0.40;88.12;102089.67;2734245;84;21091;-72
2022/02/28 04:05:18;;;;;;;65.85;36.03;;;;;;;0.47;87.94;102083.47;2754285;86;21370;-72
2022/02/28 04:09:20;;;;;;;58.08;36.15;;;;;;;0.33;88.36;102088.86;2753684;86;21027;-72
2022/02/28 04:13:22;;;;;;;68.83;43.17;;;;;;;0.33;88.89;102089.31;2753650;86;21024;-71
2022/02/28 04:17:24;;;;;;;61.02;37.67;;;;;;;0.39;88.51;102083.58;2743357;85;21115;-68
2022/02/28 04:21:25;;;;;;;67.03;38.63;;;;;;;0.52;88.56;102072.95;2753780;85;21547;-68
2022/02/28 04:25:27;;;;;;;58.73;37.80;;;;;;;0.65;88.38;102084.16;2754812;86;21051;-68
2022/02/28 04:29:29;;;;;;;61.60;31.35;;;;;;;0.69;87.59;102085.42;2754248;85;21071;-68
2022/02/28 04:33:31;;;;;;;59.75;34.10;;;;;;;0.62;87.30;102094.25;2754459;85;21126;-69
2022/02/28 04:37:33;;;;;;;56.53;35.52;;;;;;;0.68;86.33;102087.62;2754470;86;21031;-69
2022/02/28 04:41:35;;;;;;;60.05;36.00;;;;;;;0.62;85.96;102091.63;2753798;86;21074;-68
2022/02/28 04:45:37;;;;;;;63.33;37.03;;;;;;;0.64;86.35;102091.59;2754685;86;21071;-68
2022/02/28 04:49:38;;;;;;;59.95;36.03;;;;;;;0.69;86.15;102094.59;2754313;86;21024;-68
2022/02/28 04:53:41;;;;;;;61.58;38.90;;;;;;;0.79;85.94;102101.90;2754221;86;21071;-68
2022/02/28 04:57:44;;;;;;;66.00;36.20;;;;;;;0.83;85.29;102100.97;2754429;85;21060;-69
2022/02/28 05:01:46;;;;;;;66.70;36.77;;;;;;;0.88;84.88;102100.92;2751892;86;21056;-69
2022/02/28 05:05:49;;;;;;;59.13;32.58;;;;;;;0.94;84.46;102094.29;2748632;86;21105;-66
2022/02/28 05:09:50;;;;;;;61.05;36.08;;;;;;;0.98;84.10;102094.70;2749469;86;21648;-66
2022/02/28 05:13:52;;;;;;;60.92;36.03;;;;;;;0.95;83.35;102105.20;2749559;85;21040;-69
2022/02/28 05:17:54;;;;;;;59.48;36.48;;;;;;;0.92;83.43;102112.25;2749074;85;21135;-68
2022/02/28 05:21:57;;;;;;;55.98;33.15;;;;;;;0.90;83.62;102109.63;2749151;85;21076;-69
2022/02/28 05:25:58;;;;;;;54.67;34.60;;;;;;;0.93;83.36;102115.29;2748970;86;21052;-67
2022/02/28 05:30:00;;;;;;;58.58;34.15;;;;;;;0.79;82.95;102103.21;2749369;86;21084;-67
2022/02/28 05:34:01;;;;;;;58.33;34.67;;;;;;;0.58;83.65;102117.41;2750403;86;21040;-68
2022/02/28 05:38:03;;;;;;;64.35;36.70;;;;;;;0.50;84.25;102119.25;2749295;85;21064;-67
2022/02/28 05:42:06;;;;;;;62.88;35.15;;;;;;;0.59;83.94;102116.97;2749473;86;21069;-67
2022/02/28 05:46:09;;;;;;;63.00;34.00;;;;;;;0.71;83.89;102108.53;2750062;86;21060;-68
2022/02/28 05:50:11;;;;;;;65.35;33.85;;;;;;;0.58;83.92;102117.86;2750154;86;21155;-67
2022/02/28 05:54:13;;;;;;;73.25;41.00;;;;;;;0.52;83.93;102108.31;2749438;86;21079;-68
2022/02/28 05:58:16;;;;;;;61.77;38.65;;;;;;;0.45;84.16;102115.36;2749383;85;21100;-67
2022/02/28 06:02:18;;;;;;;60.73;34.35;;;;;;;0.39;83.98;102122.86;2752325;86;21039;-67
2022/02/28 06:06:20;;;;;;;63.60;36.55;;;;;;;0.34;84.07;102122.01;2755260;85;21123;-67
2022/02/28 06:10:22;;;;;;;66.55;39.08;;;;;;;0.38;84.74;102126.33;2755409;86;21402;-67
2022/02/28 06:14:23;;;;;;;66.42;41.15;;;;;;;0.42;84.86;102126.75;2755407;86;21544;-67
2022/02/28 06:18:25;;;;;;;71.62;41.35;;;;;;;0.45;84.36;102134.14;2755629;86;21057;-67
2022/02/28 06:22:27;;;;;;;66.05;41.20;;;;;;;0.46;84.37;102137.19;2755249;86;21106;-68
2022/02/28 06:26:29;;;;;;;70.22;39.35;;;;;;;0.41;84.67;102134.18;2755290;86;21055;-67
2022/02/28 06:30:30;;;;;;;67.87;40.00;;;;;;;0.38;84.42;102134.18;2755003;86;21067;-68
2022/02/28 06:34:32;;;;;;;66.42;38.88;;;;;;;0.41;84.47;102143.34;2755374;86;21059;-68
2022/02/28 06:38:34;;;;;;;54.42;35.43;;;;;;;0.49;83.91;102142.39;2755073;86;21067;-68
2022/02/28 06:42:36;;;;;;;68.20;38.08;;;;;;;0.51;83.92;102141.93;2755208;86;21028;-68
2022/02/28 06:46:38;;;;;;;62.58;38.73;;;;;;;0.52;83.93;102143.66;2755009;86;21105;-67
2022/02/28 06:50:40;;;;;;;67.15;40.45;;;;;;;0.60;83.19;102148.83;2754773;85;21575;-68
2022/02/28 06:54:42;;;;;;;61.28;35.80;;;;;;;0.71;82.97;102150.91;2754995;86;21333;-68
2022/02/28 06:58:43;;;;;;;68.40;39.58;;;;;;;0.68;82.53;102155.73;2754962;85;21027;-68
2022/02/28 07:02:45;;;;;;;66.95;37.33;;;;;;;0.68;82.12;102157.03;2754168;86;21108;-68
2022/02/28 07:06:47;;;;;;;66.72;39.18;;;;;;;0.82;82.96;102157.34;2754686;86;21154;-67
2022/02/28 07:10:50;;;;;;;60.15;41.23;;;;;;;0.98;82.38;102158.91;2754589;86;21098;-68
2022/02/28 07:14:52;;;;;;;74.42;41.42;;;;;;;1.12;81.83;102160.05;2754998;86;21087;-68
2022/02/28 07:18:54;;;;;;;71.35;40.33;;;;;;;1.24;81.52;102157.71;2754970;86;21397;-68
2022/02/28 07:22:56;;;;;;;64.27;41.77;;;;;;;1.36;81.34;102162.36;2754944;85;20996;-68
2022/02/28 07:26:58;;;;;;;71.00;40.05;;;;;;;1.49;80.80;102160.00;2754511;86;21094;-68
2022/02/28 07:30:59;;;;;;;58.40;36.83;;;;;;;1.61;80.23;102165.52;2755068;86;21619;-68
2022/02/28 07:35:01;;;;;;;62.73;37.60;;;;;;;1.68;79.33;102168.93;2755290;86;21008;-68
2022/02/28 07:39:04;;;;;;;71.65;41.70;;;;;;;1.62;78.94;102165.09;2755221;86;21050;-68
2022/02/28 07:43:07;;;;;;;65.55;39.63;;;;;;;1.67;79.06;102170.70;2755498;85;21063;-67
2022/02/28 07:47:10;;;;;;;72.75;39.98;;;;;;;1.80;79.81;102168.77;2754598;86;21102;-67
2022/02/28 07:51:12;;;;;;;63.65;40.45;;;;;;;1.81;78.89;102179.68;2755233;86;21061;-67
2022/02/28 07:55:14;;;;;;;61.65;37.80;;;;;;;1.85;79.61;102193.17;2755140;86;21091;-67
2022/02/28 07:59:15;;;;;;;66.37;38.80;;;;;;;1.85;78.98;102193.60;2754846;85;21043;-67
2022/02/28 08:03:17;;;;;;;68.78;41.95;;;;;;;1.81;78.31;102198.05;2755473;84;21008;-67
2022/02/28 08:07:19;;;;;;;74.53;40.88;;;;;;;1.71;78.20;102206.92;2755406;86;21055;-67
2022/02/28 08:11:20;;;;;;;59.25;41.40;;;;;;;1.73;78.30;102210.39;2754481;86;21067;-67
2022/02/28 08:15:22;;;;;;;56.83;35.92;;;;;;;1.80;78.62;102208.12;2755388;86;21060;-67
2022/02/28 08:19:23;;;;;;;62.53;37.08;;;;;;;1.93;78.46;102208.81;2755231;85;21515;-67
2022/02/28 08:23:25;;;;;;;57.95;39.33;;;;;;;2.05;77.99;102210.38;2755569;86;21052;-67
2022/02/28 08:27:28;;;;;;;62.45;37.25;;;;;;;2.19;77.95;102205.38;2755066;86;21496;-67
2022/02/28 08:31:30;;;;;;;53.42;34.83;;;;;;;2.41;77.77;102208.50;2754347;86;21087;-67
2022/02/28 08:35:32;;;;;;;64.10;39.58;;;;;;;2.67;78.22;102198.00;2756290;86;21051;-67
2022/02/28 08:39:34;;;;;;;64.22;38.00;;;;;;;2.92;76.64;102206.74;2756160;86;21650;-67
2022/02/28 08:43:36;;;;;;;65.83;36.28;;;;;;;3.00;75.89;102215.34;2755887;85;21020;-67
2022/02/28 08:47:38;;;;;;;64.50;37.63;;;;;;;3.11;75.64;102212.50;2755946;86;21020;-67
2022/02/28 08:51:41;;;;;;;69.92;37.65;;;;;;;3.26;75.26;102212.20;2755985;85;21492;-67
2022/02/28 08:55:42;;;;;;;56.95;35.03;;;;;;;3.46;73.67;102218.81;2756019;85;21059;-67
2022/02/28 08:59:44;;;;;;;47.25;34.18;;;;;;;3.63;73.49;102214.97;2756356;86;21047;-67
2022/02/28 09:03:46;;;;;;;55.88;33.05;;;;;;;3.78;72.69;102219.90;2753620;84;21057;-67
2022/02/28 09:07:47;;;;;;;63.85;35.15;;;;;;;3.95;71.38;102220.82;2751038;86;21153;-67
2022/02/28 09:11:49;;;;;;;49.73;32.13;;;;;;;3.98;71.32;102225.16;2751384;86;21013;-67
2022/02/28 09:15:50;;;;;;;52.60;35.10;;;;;;;3.96;70.28;102217.75;2750983;85;21022;-67
2022/02/28 09:19:52;;;;;;;56.37;33.65;;;;;;;3.97;69.83;102218.17;2751660;86;21025;-67
2022/02/28 09:23:55;;;;;;;51.00;31.85;;;;;;;4.09;70.74;102216.55;2751087;86;21042;-66
2022/02/28 09:27:56;;;;;;;63.90;37.08;;;;;;;4.28;70.61;102214.78;2751634;86;21060;-67
2022/02/28 09:31:58;;;;;;;58.75;36.13;;;;;;;4.10;70.50;102213.47;2751013;85;21065;-67
2022/02/28 09:36:00;;;;;;;50.67;32.35;;;;;;;4.04;71.54;102209.68;2751794;86;21522;-67
2022/02/28 09:40:04;;;;;;;60.80;30.97;;;;;;;4.09;71.61;102214.38;2751078;85;21061;-67
2022/02/28 09:44:06;;;;;;;54.25;30.57;;;;;;;4.14;71.58;102216.44;2751189;86;21041;-67
2022/02/28 09:48:09;;;;;;;59.30;32.28;;;;;;;4.31;70.41;102217.81;2751513;86;21046;-67
2022/02/28 09:52:11;;;;;;;50.12;32.65;;;;;;;4.40;70.16;102217.56;2750662;86;21088;-67
2022/02/28 09:56:13;;;;;;;43.75;28.05;;;;;;;4.54;69.23;102222.05;2764011;85;21062;-67
2022/02/28 10:00:22;;;;;;;48.98;30.80;;;;;;;4.79;69.16;102215.28;2801796;84;21126;-67
2022/02/28 10:04:23;;;;;;;45.52;29.35;;;;;;;4.97;68.63;102213.91;2802451;84;21066;-67
2022/02/28 10:08:26;;;;;;;42.78;27.45;;;;;;;5.11;67.56;102220.99;2754979;86;21023;-67
2022/02/28 10:12:32;;;;;;;43.92;27.17;;;;;;;5.00;67.44;102218.66;2804380;84;21031;-67
2022/02/28 10:16:46;;;;;;;55.38;32.45;;;;;;;5.02;67.87;102220.38;2803748;84;21093;-67
2022/02/28 10:20:48;;;;;;;30.80;23.07;;;;;;;5.22;67.92;102222.01;2804129;84;21077;-67
2022/02/28 10:24:54;;;;;;;44.65;27.50;;;;;;;5.47;65.96;102210.73;2804242;84;21563;-67
2022/02/28 10:29:06;;;;;;;32.98;23.40;;;;;;;5.69;66.32;102212.73;2804124;85;21044;-67
2022/02/28 10:33:11;;;;;;;26.73;16.73;;;;;;;5.75;63.08;102215.20;2803519;84;21067;-67
2022/02/28 10:37:13;;;;;;;20.77;13.88;;;;;;;5.91;61.72;102212.09;2803934;84;21527;-67
2022/02/28 10:41:20;;;;;;;18.67;15.48;;;;;;;5.93;60.82;102211.11;2755717;86;21044;-67
2022/02/28 10:45:25;;;;;;;26.75;13.28;;;;;;;5.91;59.70;102206.81;2804231;85;21613;-67
2022/02/28 10:49:33;;;;;;;15.45;10.85;;;;;;;5.92;59.65;102205.90;2728695;87;21041;-67
2022/02/28 10:53:36;;;;;;;22.85;14.07;;;;;;;5.94;58.52;102208.03;2776051;84;21068;-67
2022/02/28 10:57:38;;;;;;;24.00;14.65;;;;;;;5.99;57.33;102203.45;2776292;85;21049;-67
2022/02/28 11:01:41;;;;;;;17.32;12.63;;;;;;;5.88;56.67;102200.28;2803622;85;21074;-67
2022/02/28 11:05:57;;;;;;;18.95;11.83;;;;;;;5.68;56.47;102198.67;2727461;86;21058;-67
2022/02/28 11:10:04;;;;;;;17.97;10.40;;;;;;;5.47;56.23;102193.58;2771281;86;22067;-67
2022/02/28 11:14:06;;;;;;;12.15;9.13;;;;;;;5.50;56.83;102189.55;2771238;85;21125;-67
2022/02/28 11:18:12;;;;;;;10.50;5.30;;;;;;;5.63;56.01;102193.13;2771462;85;21058;-67
2022/02/28 11:22:14;;;;;;;20.17;7.70;;;;;;;5.54;51.79;102192.94;2802652;84;21046;-67
2022/02/28 11:26:17;;;;;;;9.20;6.05;;;;;;;5.49;52.43;102186.47;2727851;87;21038;-67
2022/02/28 11:30:27;;;;;;;7.53;5.33;;;;;;;5.36;52.57;102185.13;2772251;86;21055;-67
2022/02/28 11:34:30;;;;;;;10.75;7.33;;;;;;;5.47;52.85;102180.84;2772225;85;21146;-67
2022/02/28 11:38:37;;;;;;;12.33;7.37;;;;;;;5.64;52.10;102175.05;2772723;84;21009;-67
2022/02/28 11:43:02;;;;;;;20.30;12.20;;;;;;;5.69;53.23;102175.76;2762389;86;21067;-67
2022/02/28 11:47:13;;;;;;;22.35;12.58;;;;;;;5.79;52.63;102179.86;2740450;86;21064;-67
2022/02/28 11:51:26;;;;;;;;;;;;;;;6.01;50.40;102173.92;2759177;86;21076;-67
2022/02/28 11:55:29;;;;;;;6.25;3.47;;;;;;;6.27;52.02;102185.41;2756917;86;20148;-68
2022/02/28 11:59:33;;;;;;;3.92;2.85;;;;;;;6.48;50.80;102174.57;2756854;86;21570;-68
2022/02/28 12:03:36;;;;;;;6.70;3.50;;;;;;;6.47;48.43;102171.52;2757021;85;21691;-68
2022/02/28 12:07:39;;;;;;;8.90;4.33;;;;;;;6.30;47.57;102172.11;2756372;86;21601;-68
2022/02/28 12:11:41;;;;;;;6.85;4.22;;;;;;;6.22;49.02;102169.72;2756716;85;21081;-67
2022/02/28 12:15:43;;;;;;;6.45;3.58;;;;;;;6.25;48.17;102174.02;2756453;85;21057;-68
2022/02/28 12:19:46;;;;;;;5.72;4.90;;;;;;;6.22;48.09;102172.36;2756477;85;21082;-67
2022/02/28 12:23:47;;;;;;;20.70;14.45;;;;;;;6.14;46.92;102169.97;2756680;86;21636;-67
2022/02/28 12:27:49;;;;;;;7.40;5.15;;;;;;;5.93;49.17;102168.84;2756844;86;21013;-67
2022/02/28 12:31:51;;;;;;;9.20;6.37;;;;;;;5.90;48.40;102164.14;2756382;85;21124;-67
2022/02/28 12:36:11;;;;;;;7.75;4.20;;;;;;;5.95;49.08;102164.84;2754029;86;21053;-67
2022/02/28 12:40:13;;;;;;;17.82;10.40;;;;;;;6.06;47.28;102166.70;2755919;86;21057;-67
2022/02/28 12:44:18;;;;;;;19.07;15.50;;;;;;;6.13;48.69;102163.41;2756905;86;21021;-67
2022/02/28 12:48:22;;;;;;;12.40;8.90;;;;;;;6.27;48.56;102158.97;2756171;85;21058;-68
2022/02/28 12:52:24;;;;;;;14.10;8.10;;;;;;;6.33;51.22;102167.16;2756553;85;21088;-68
2022/02/28 12:56:25;;;;;;;24.15;11.53;;;;;;;6.14;50.97;102172.61;2756316;85;21049;-67
2022/02/28 13:00:37;;;;;;;10.45;8.13;;;;;;;6.05;50.80;102176.86;2756467;86;21065;-68
2022/02/28 13:04:51;;;;;;;12.65;7.50;;;;;;;5.80;49.52;102175.45;2754334;84;21025;-68
2022/02/28 13:09:12;;;;;;;14.50;8.75;;;;;;;5.62;50.58;102179.52;2752324;86;21002;-68
2022/02/28 13:13:24;;;;;;;12.45;7.92;;;;;;;5.51;51.40;102175.44;2752039;85;21093;-67
2022/02/28 13:17:27;;;;;;;41.70;21.42;;;;;;;5.38;51.32;102178.03;2752112;85;21046;-68
2022/02/28 13:21:35;;;;;;;63.92;31.40;;;;;;;5.38;51.81;102175.39;2752646;86;21026;-68
2022/02/28 13:25:36;;;;;;;24.92;12.80;;;;;;;5.54;52.49;102167.86;2752451;86;21006;-67
2022/02/28 13:29:39;;;;;;;20.68;11.83;;;;;;;5.67;51.34;102174.50;2752596;86;21038;-68
2022/02/28 13:33:44;;;;;;;35.55;17.73;;;;;;;5.96;51.17;102171.86;2752403;85;21090;-68
2022/02/28 13:37:55;;;;;;;11.22;6.58;;;;;;;6.00;47.11;102175.68;2752441;86;21041;-68
2022/02/28 13:42:13;;;;;;;10.18;5.80;;;;;;;5.89;47.64;102172.95;2753341;86;21069;-68
2022/02/28 13:46:15;;;;;;;15.30;6.95;;;;;;;5.71;49.33;102172.17;2752167;86;21839;-68
2022/02/28 13:50:17;;;;;;;8.00;4.92;;;;;;;5.43;49.63;102173.47;2752300;85;21053;-68
2022/02/28 13:54:19;;;;;;;14.90;8.75;;;;;;;5.31;50.85;102177.34;2752199;86;21425;-68
2022/02/28 13:58:29;;;;;;;16.77;10.65;;;;;;;5.24;52.27;102177.97;2752157;86;21089;-68
2022/02/28 14:02:56;;;;;;;15.32;8.40;;;;;;;5.21;52.42;102172.78;2752444;86;21087;-67
2022/02/28 14:07:00;;;;;;;12.93;8.13;;;;;;;5.26;52.67;102176.14;2660148;89;21023;-67
2022/02/28 14:11:05;;;;;;;12.07;8.08;;;;;;;5.50;52.23;102171.52;2660671;89;21067;-67
2022/02/28 14:15:08;;;;;;;7.67;5.75;;;;;;;5.77;49.37;102167.60;2660551;88;21134;-67
2022/02/28 14:19:17;;;;;;;8.45;5.90;;;;;;;6.01;47.45;102172.59;2661036;89;21690;-67
2022/02/28 14:23:19;;;;;;;14.60;8.53;;;;;;;6.10;47.62;102169.67;2660963;88;21047;-67
2022/02/28 14:27:29;;;;;;;13.00;8.95;;;;;;;6.02;48.75;102180.93;2660111;89;21043;-68
2022/02/28 14:31:32;;;;;;;92.57;46.85;;;;;;;5.83;49.69;102185.45;2578152;89;21112;-67
2022/02/28 14:35:34;;;;;;;64.15;39.58;;;;;;;5.50;49.61;102182.95;2620439;90;21003;-67
2022/02/28 14:39:36;;;;;;;72.03;45.48;;;;;;;5.33;50.14;102186.55;2620387;90;21097;-67
2022/02/28 14:43:41;;;;;;;14.93;8.65;;;;;;;5.20;51.47;102186.01;2690935;87;21611;-67
2022/02/28 14:47:43;;;;;;;15.63;9.90;;;;;;;5.10;51.66;102188.05;2716939;87;21090;-67
2022/02/28 14:51:45;;;;;;;11.60;8.30;;;;;;;5.00;51.25;102188.32;2716837;87;21035;-67
2022/02/28 14:55:47;;;;;;;14.25;8.00;;;;;;;4.94;50.85;102196.41;2716576;87;21058;-67
2022/02/28 14:59:48;;;;;;;10.08;7.67;;;;;;;4.97;52.85;102208.19;2716361;87;21098;-67
2022/02/28 15:03:50;;;;;;;18.77;8.98;;;;;;;5.04;52.48;102201.42;2716883;86;21063;-67
2022/02/28 15:07:52;;;;;;;12.63;8.95;;;;;;;5.05;52.55;102201.83;2716140;87;21043;-67
2022/02/28 15:11:56;;;;;;;9.90;8.68;;;;;;;5.04;53.14;102195.70;2716088;87;21032;-67
2022/02/28 15:15:57;;;;;;;9.95;7.95;;;;;;;4.96;54.69;102199.87;2716488;87;21070;-68
2022/02/28 15:19:59;;;;;;;51.28;33.45;;;;;;;4.81;52.83;102202.91;2716019;86;21031;-67
2022/02/28 15:24:00;;;;;;;93.00;57.23;;;;;;;4.75;53.50;102206.58;2716088;86;21669;-68
2022/02/28 15:28:02;;;;;;;75.12;47.35;;;;;;;4.65;54.51;102203.31;2715172;87;21070;-68
2022/02/28 15:32:05;;;;;;;54.98;31.57;;;;;;;4.58;53.07;102200.44;2715840;87;21073;-67
2022/02/28 15:36:07;;;;;;;22.50;9.25;;;;;;;4.47;53.94;102196.77;2715952;86;21126;-67
2022/02/28 15:40:11;;;;;;;37.50;21.97;;;;;;;4.35;53.94;102204.97;2716276;87;21092;-67
2022/02/28 15:44:13;;;;;;;17.12;10.90;;;;;;;4.32;53.95;102202.41;2715966;86;21034;-66
2022/02/28 15:48:15;;;;;;;17.10;9.40;;;;;;;4.17;53.66;102208.93;2716131;86;21078;-67
2022/02/28 15:52:17;;;;;;;16.65;10.23;;;;;;;4.14;55.20;102211.17;2715408;87;21102;-67
2022/02/28 15:56:19;;;;;;;14.03;8.95;;;;;;;4.10;55.24;102218.27;2715026;86;21066;-67
2022/02/28 16:00:26;;;;;;;10.70;8.25;;;;;;;4.10;53.89;102212.16;2716464;86;21098;-66
2022/02/28 16:04:27;;;;;;;14.93;9.70;;;;;;;4.17;55.20;102219.47;2712145;86;21099;-66
2022/02/28 16:08:29;;;;;;;12.50;8.95;;;;;;;4.18;56.90;102216.78;2704246;88;21087;-66
2022/02/28 16:12:33;;;;;;;16.55;7.50;;;;;;;4.08;56.11;102223.19;2723114;87;21026;-67
2022/02/28 16:16:35;;;;;;;12.00;7.60;;;;;;;4.01;56.82;102225.09;2722254;86;21511;-66
2022/02/28 16:20:37;;;;;;;9.78;7.80;;;;;;;3.90;56.91;102228.41;2723865;87;21064;-67
2022/02/28 16:24:38;;;;;;;11.80;8.60;;;;;;;3.78;57.31;102226.91;2716431;86;21092;-66
2022/02/28 16:28:40;;;;;;;11.57;9.38;;;;;;;3.64;55.77;102228.54;2707129;87;21071;-66
2022/02/28 16:32:42;;;;;;;16.40;8.35;;;;;;;3.49;56.58;102226.64;2687828;87;21029;-66
2022/02/28 16:36:43;;;;;;;11.50;7.37;;;;;;;3.37;56.01;102233.49;2709131;87;21047;-67
2022/02/28 16:40:45;;;;;;;11.28;9.25;;;;;;;3.22;55.92;102236.84;2707390;86;21078;-66
2022/02/28 16:44:47;;;;;;;11.30;7.35;;;;;;;3.16;55.93;102234.34;2705823;87;21065;-67
2022/02/28 16:48:49;;;;;;;13.30;9.20;;;;;;;3.10;56.25;102236.63;2721795;87;21453;-67
2022/02/28 16:52:50;;;;;;;13.32;9.58;;;;;;;3.07;56.85;102233.19;2712026;87;21032;-66
2022/02/28 16:56:53;;;;;;;19.95;12.43;;;;;;;3.03;56.86;102236.31;2720262;87;29678;-67
2022/02/28 17:00:55;;;;;;;15.25;13.32;;;;;;;2.98;56.90;102236.85;2721079;87;21032;-67
2022/02/28 17:04:56;;;;;;;16.50;12.53;;;;;;;2.91;56.92;102226.89;2715515;86;21084;-67
2022/02/28 17:08:58;;;;;;;22.37;12.93;;;;;;;2.90;57.07;102232.20;2701343;87;21035;-66
2022/02/28 17:13:00;;;;;;;20.12;12.58;;;;;;;2.88;57.10;102234.84;2661149;87;21348;-67
2022/02/28 17:17:02;;;;;;;20.95;13.62;;;;;;;2.88;57.39;102240.09;2728424;86;21097;-67
2022/02/28 17:21:03;;;;;;;16.70;12.78;;;;;;;2.80;57.40;102243.33;2723152;86;21049;-67
2022/02/28 17:25:07;;;;;;;35.08;20.30;;;;;;;2.72;57.80;102236.89;2722999;86;21685;-67
2022/02/28 17:29:09;;;;;;;22.32;14.78;;;;;;;2.60;58.11;102239.71;2726341;86;21039;-67
2022/02/28 17:33:10;;;;;;;23.70;14.90;;;;;;;2.50;58.06;102241.20;2724749;86;21051;-67
2022/02/28 17:37:14;;;;;;;21.70;14.33;;;;;;;2.39;58.65;102245.74;2728751;86;21047;-67
2022/02/28 17:41:16;;;;;;;20.00;12.78;;;;;;;2.33;58.16;102245.39;2707142;87;21078;-67
2022/02/28 17:45:17;;;;;;;18.48;11.38;;;;;;;2.33;58.42;102247.17;2705106;87;21050;-67
2022/02/28 17:49:19;;;;;;;16.57;10.45;;;;;;;2.32;58.24;102250.22;2704796;88;21128;-67
2022/02/28 17:53:21;;;;;;;18.17;10.72;;;;;;;2.30;57.81;102245.91;2704955;87;21074;-67
2022/02/28 17:57:23;;;;;;;45.55;27.85;;;;;;;2.29;57.65;102246.34;2705547;87;21071;-67
2022/02/28 18:01:25;;;;;;;68.95;38.23;;;;;;;2.22;57.87;102252.59;2704774;87;21035;-67
2022/02/28 18:05:27;;;;;;;47.30;29.50;;;;;;;2.18;58.94;102256.16;2715060;85;21499;-67
2022/02/28 18:09:28;;;;;;;45.63;27.40;;;;;;;2.03;60.59;102254.60;2730286;87;21053;-67
2022/02/28 18:13:30;;;;;;;48.20;29.23;;;;;;;1.90;60.64;102257.84;2651888;88;21072;-67
2022/02/28 18:17:32;;;;;;;53.25;28.02;;;;;;;1.80;60.12;102264.55;2620810;89;21090;-66
2022/02/28 18:21:33;;;;;;;38.33;26.68;;;;;;;1.74;60.28;102263.76;2690277;87;21069;-66
2022/02/28 18:25:35;;;;;;;39.65;20.75;;;;;;;1.69;60.05;102262.06;2720841;87;21677;-66
2022/02/28 18:29:37;;;;;;;43.60;23.55;;;;;;;1.68;59.74;102269.52;2725534;87;21101;-67
2022/02/28 18:33:39;;;;;;;36.60;22.30;;;;;;;1.67;59.63;102262.96;2724665;87;21581;-67
2022/02/28 18:37:43;;;;;;;32.65;20.85;;;;;;;1.65;59.60;102271.30;2706890;87;21120;-66
2022/02/28 18:41:46;;;;;;;29.60;18.60;;;;;;;1.60;59.67;102266.56;2706635;87;21068;-66